createdAt,value
2018-12-15T00:00:46.123Z,34.43
2018-12-15T00:03:16.675Z,30.87
2018-12-15T00:05:49.308Z,33.30
2018-12-15T00:08:23.853Z,37.50
2018-12-15T00:13:47.034Z,33.83
2018-12-15T00:16:18.915Z,35.23
2018-12-15T00:18:51.460Z,29.87
2018-12-15T00:21:23.472Z,32.00
2018-12-15T00:23:55.855Z,33.20
2018-12-15T00:26:28.469Z,36.13
2018-12-15T00:29:00.216Z,33.30
2018-12-15T00:31:32.840Z,31.77
2018-12-15T00:34:07.125Z,29.93
2018-12-15T00:36:39.029Z,26.90
2018-12-15T00:39:09.292Z,31.33
2018-12-15T00:41:41.647Z,24.67
2018-12-15T00:44:16.228Z,27.33
2018-12-15T00:49:20.079Z,28.43
2018-12-15T00:51:52.256Z,28.37
2018-12-15T00:54:24.413Z,28.47
2018-12-15T00:56:56.068Z,27.20
2018-12-15T00:59:26.644Z,29.77
2018-12-15T01:01:59.237Z,25.93
2018-12-15T01:04:31.145Z,27.97
2018-12-15T01:07:03.197Z,22.67
2018-12-15T01:09:35.668Z,20.43
2018-12-15T01:12:07.700Z,27.70
2018-12-15T01:14:40.004Z,23.73
2018-12-15T01:17:12.217Z,20.00
2018-12-15T01:19:44.463Z,29.47
2018-12-15T01:22:16.539Z,26.37
2018-12-15T01:24:49.316Z,27.13
2018-12-15T01:27:21.058Z,27.07
2018-12-15T01:29:53.543Z,29.67
2018-12-15T01:32:23.867Z,24.93
2018-12-15T01:34:56.166Z,23.73
2018-12-15T01:37:27.070Z,27.80
2018-12-15T01:39:59.463Z,19.93
2018-12-15T01:42:31.973Z,27.57
2018-12-15T01:45:06.395Z,27.97
2018-12-15T01:47:35.200Z,29.10
2018-12-15T01:50:07.350Z,28.33
2018-12-15T01:52:39.467Z,28.43
2018-12-15T01:55:11.590Z,29.13
2018-12-15T01:57:44.151Z,28.73
2018-12-15T02:00:16.190Z,26.17
2018-12-15T02:02:46.544Z,30.20
2018-12-15T02:05:18.684Z,30.53
2018-12-15T02:07:51.008Z,30.47
2018-12-15T02:10:22.564Z,29.33
2018-12-15T02:12:55.080Z,29.57
2018-12-15T02:15:27.342Z,28.37
2018-12-15T02:18:00.098Z,30.20
2018-12-15T02:20:31.903Z,30.47
2018-12-15T02:23:04.883Z,29.53
2018-12-15T02:25:37.313Z,31.23
2018-12-15T02:28:09.337Z,32.63
2018-12-15T02:30:41.645Z,29.07
2018-12-15T02:33:16.029Z,32.80
2018-12-15T02:35:47.921Z,30.37
2018-12-15T02:38:20.016Z,34.07
2018-12-15T02:40:52.407Z,32.47
2018-12-15T02:43:25.147Z,24.50
2018-12-15T02:45:58.219Z,30.37
2018-12-15T02:48:31.956Z,32.40
2018-12-15T02:51:04.416Z,31.73
2018-12-15T02:53:37.510Z,32.73
2018-12-15T02:56:10.353Z,30.37
2018-12-15T02:58:44.620Z,32.23
2018-12-15T03:01:15.732Z,30.07
2018-12-15T03:03:50.124Z,31.63
2018-12-15T03:06:23.162Z,34.53
2018-12-15T03:08:58.953Z,27.87
2018-12-15T03:11:32.795Z,31.67
2018-12-15T03:14:06.361Z,34.33
2018-12-15T03:16:43.988Z,34.40
2018-12-15T03:19:17.344Z,30.40
2018-12-15T03:21:49.732Z,34.50
2018-12-15T03:24:22.302Z,36.30
2018-12-15T03:26:54.803Z,34.67
2018-12-15T03:29:29.232Z,36.03
2018-12-15T03:32:02.524Z,36.13
2018-12-15T03:34:36.281Z,29.50
2018-12-15T03:37:08.512Z,35.23
2018-12-15T03:39:41.924Z,34.93
2018-12-15T03:42:12.488Z,36.73
2018-12-15T03:44:45.062Z,35.63
2018-12-15T03:47:15.901Z,37.37
2018-12-15T03:49:48.726Z,37.57
2018-12-15T03:52:22.355Z,37.50
2018-12-15T03:54:55.918Z,33.63
2018-12-15T03:57:29.139Z,40.33
2018-12-15T04:00:03.224Z,36.67
2018-12-15T04:02:39.615Z,39.27
2018-12-15T04:05:09.897Z,37.03
2018-12-15T04:07:43.131Z,38.07
2018-12-15T04:10:15.492Z,38.03
2018-12-15T04:12:48.281Z,37.47
2018-12-15T04:15:21.482Z,41.40
2018-12-15T04:18:03.455Z,34.40
2018-12-15T04:20:33.722Z,37.73
2018-12-15T04:23:06.696Z,40.60
2018-12-15T04:25:39.249Z,39.73
2018-12-15T04:28:11.948Z,34.93
2018-12-15T04:30:44.487Z,39.10
2018-12-15T04:33:15.336Z,39.13
2018-12-15T04:35:47.221Z,34.90
2018-12-15T04:38:19.217Z,40.10
2018-12-15T04:40:51.876Z,39.63
2018-12-15T04:43:24.125Z,40.70
2018-12-15T04:45:55.853Z,40.47
2018-12-15T04:48:29.419Z,39.47
2018-12-15T04:51:03.481Z,39.37
2018-12-15T04:53:38.873Z,34.37
2018-12-15T04:56:12.311Z,36.43
2018-12-15T04:58:45.432Z,40.83
2018-12-15T05:01:19.004Z,35.60
2018-12-15T05:03:52.269Z,32.00
2018-12-15T05:06:25.122Z,36.43
2018-12-15T05:08:58.436Z,38.60
2018-12-15T05:11:31.233Z,38.67
2018-12-15T05:14:04.280Z,38.57
2018-12-15T05:16:38.613Z,38.27
2018-12-15T05:19:26.750Z,34.47
2018-12-15T05:21:59.658Z,19.07
2018-12-15T05:24:32.368Z,37.70
2018-12-15T05:27:06.867Z,36.57
2018-12-15T05:29:40.195Z,36.80
2018-12-15T05:32:13.040Z,38.40
2018-12-15T05:34:50.887Z,35.20
2018-12-15T05:37:24.296Z,35.67
2018-12-15T05:39:57.398Z,34.33
2018-12-15T05:42:30.715Z,32.67
2018-12-15T05:45:03.909Z,39.00
2018-12-15T05:47:38.372Z,30.20
2018-12-15T05:50:10.956Z,37.40
2018-12-15T05:52:43.963Z,34.93
2018-12-15T05:55:20.016Z,30.77
2018-12-15T05:57:55.508Z,30.40
2018-12-15T06:00:28.185Z,35.57
2018-12-15T06:03:02.243Z,32.50
2018-12-15T06:05:36.438Z,35.27
2018-12-15T06:08:08.920Z,36.83
2018-12-15T06:10:41.936Z,37.03
2018-12-15T06:13:15.269Z,35.53
2018-12-15T06:15:48.502Z,33.47
2018-12-15T06:18:21.470Z,35.20
2018-12-15T06:20:52.532Z,34.87
2018-12-15T06:23:25.706Z,35.73
2018-12-15T06:25:56.615Z,35.70
2018-12-15T06:28:30.481Z,34.43
2018-12-15T06:31:03.851Z,33.77
2018-12-15T06:33:36.759Z,22.57
2018-12-15T06:36:12.788Z,31.43
2018-12-15T06:38:45.352Z,24.50
2018-12-15T06:41:18.426Z,20.73
2018-12-15T06:43:51.100Z,21.40
2018-12-15T06:46:24.274Z,23.37
2018-12-15T06:48:57.357Z,25.77
2018-12-15T06:51:30.875Z,26.40
2018-12-15T06:54:04.872Z,28.23
2018-12-15T06:59:09.542Z,27.90
2018-12-15T07:01:42.143Z,28.37
2018-12-15T07:04:15.509Z,27.57
2018-12-15T07:06:47.885Z,27.93
2018-12-15T07:09:21.292Z,27.30
2018-12-15T07:11:53.927Z,27.40
2018-12-15T07:14:26.624Z,25.40
2018-12-15T07:16:58.005Z,23.27
2018-12-15T07:19:30.057Z,25.60
2018-12-15T07:22:02.360Z,26.17
2018-12-15T07:24:34.806Z,26.53
2018-12-15T07:27:09.198Z,25.90
2018-12-15T07:29:41.064Z,21.47
2018-12-15T07:32:13.392Z,24.23
2018-12-15T07:34:45.746Z,24.27
2018-12-15T07:37:18.879Z,23.73
2018-12-15T07:39:52.085Z,24.20
2018-12-15T07:42:26.422Z,24.33
2018-12-15T07:44:59.122Z,24.50
2018-12-15T07:47:31.859Z,25.67
2018-12-15T07:50:05.084Z,26.30
2018-12-15T07:52:37.244Z,24.80
2018-12-15T07:55:08.859Z,24.67
2018-12-15T07:57:40.925Z,24.87
2018-12-15T08:00:13.404Z,21.60
2018-12-15T08:02:45.613Z,21.20
2018-12-15T08:05:18.860Z,22.03
2018-12-15T08:07:51.376Z,22.07
2018-12-15T08:10:25.127Z,24.93
2018-12-15T08:12:57.760Z,23.40
2018-12-15T08:15:29.952Z,23.13
2018-12-15T08:18:02.228Z,18.90
2018-12-15T08:20:34.650Z,22.97
2018-12-15T08:23:09.695Z,22.60
2018-12-15T08:25:42.399Z,21.23
2018-12-15T08:28:14.468Z,20.47
2018-12-15T08:30:46.992Z,23.13
2018-12-15T08:33:18.612Z,21.07
2018-12-15T08:35:52.207Z,23.57
2018-12-15T08:38:29.207Z,24.00
2018-12-15T08:41:01.282Z,25.17
2018-12-15T08:43:33.236Z,23.03
2018-12-15T08:46:07.283Z,23.00
2018-12-15T08:48:39.519Z,23.53
2018-12-15T08:51:12.268Z,23.83
2018-12-15T08:53:45.263Z,23.93
2018-12-15T08:56:17.175Z,24.03
2018-12-15T08:58:49.232Z,21.40
2018-12-15T09:01:21.296Z,23.87
2018-12-15T09:03:53.762Z,25.07
2018-12-15T09:06:25.971Z,24.00
2018-12-15T09:09:12.071Z,15.20
2018-12-15T09:11:44.022Z,16.53
2018-12-15T09:14:18.085Z,22.07
2018-12-15T09:16:50.467Z,23.20
2018-12-15T09:19:22.771Z,20.33
2018-12-15T09:21:54.699Z,22.17
2018-12-15T09:24:25.318Z,14.20
2018-12-15T09:26:59.732Z,22.10
2018-12-15T09:29:35.569Z,21.37
2018-12-15T09:32:10.705Z,18.70
2018-12-15T09:34:45.059Z,19.33
2018-12-15T09:37:20.173Z,24.37
2018-12-15T09:39:54.668Z,24.60
2018-12-15T09:42:29.193Z,25.30
2018-12-15T09:45:02.322Z,25.70
2018-12-15T09:47:34.797Z,25.17
2018-12-15T09:50:07.903Z,23.80
2018-12-15T09:52:40.731Z,23.03
2018-12-15T09:55:13.607Z,24.20
2018-12-15T09:57:47.177Z,25.20
2018-12-15T10:00:19.859Z,25.87
2018-12-15T10:02:50.542Z,24.87
2018-12-15T10:05:23.344Z,23.43
2018-12-15T10:07:56.865Z,25.80
2018-12-15T10:10:29.832Z,23.83
2018-12-15T10:13:01.525Z,24.90
2018-12-15T10:15:36.113Z,23.97
2018-12-15T10:18:08.954Z,26.23
2018-12-15T10:20:42.595Z,24.73
2018-12-15T10:23:15.150Z,24.60
2018-12-15T10:26:07.609Z,25.17
2018-12-15T10:28:39.581Z,23.83
2018-12-15T10:31:17.106Z,25.73
2018-12-15T10:33:50.242Z,26.53
2018-12-15T10:36:23.054Z,25.33
2018-12-15T10:38:56.826Z,25.70
2018-12-15T10:41:29.038Z,27.23
2018-12-15T10:44:02.324Z,25.33
2018-12-15T10:46:34.389Z,25.80
2018-12-15T10:49:15.728Z,24.47
2018-12-15T10:51:55.687Z,26.37
2018-12-15T10:54:27.993Z,26.60
2018-12-15T10:57:00.055Z,28.07
2018-12-15T10:59:34.604Z,29.00
2018-12-15T11:02:07.639Z,24.23
2018-12-15T11:04:40.977Z,12.57
2018-12-15T11:07:13.981Z,26.10
2018-12-15T11:09:46.559Z,22.20
2018-12-15T11:12:18.828Z,24.53
2018-12-15T11:14:51.520Z,27.07
2018-12-15T11:17:23.616Z,26.70
2018-12-15T11:19:56.016Z,26.93
2018-12-15T11:22:28.824Z,26.87
2018-12-15T11:25:03.060Z,27.47
2018-12-15T11:27:35.433Z,24.90
2018-12-15T11:30:10.614Z,25.70
2018-12-15T11:32:43.184Z,28.00
2018-12-15T11:35:15.192Z,26.53
2018-12-15T11:37:47.413Z,28.90
2018-12-15T11:40:19.732Z,25.23
2018-12-15T11:42:57.631Z,25.97
2018-12-15T11:45:27.885Z,27.60
2018-12-15T11:48:00.210Z,27.53
2018-12-15T11:50:32.277Z,26.53
2018-12-15T11:53:04.764Z,27.80
2018-12-15T11:55:37.366Z,27.07
2018-12-15T11:58:09.736Z,26.63
2018-12-15T12:00:42.357Z,25.97
2018-12-15T12:03:14.737Z,26.13
2018-12-15T12:05:46.955Z,27.20
2018-12-15T12:08:19.565Z,29.57
2018-12-15T12:10:51.911Z,25.67
2018-12-15T12:13:23.938Z,27.47
2018-12-15T12:15:56.426Z,26.77
2018-12-15T12:18:30.757Z,26.67
2018-12-15T12:21:02.757Z,26.80
2018-12-15T12:23:34.877Z,28.03
2018-12-15T12:26:07.957Z,28.63
2018-12-15T12:28:38.480Z,27.00
2018-12-15T12:31:13.063Z,28.57
2018-12-15T12:33:44.185Z,27.87
2018-12-15T12:36:16.651Z,27.97
2018-12-15T12:38:48.908Z,28.87
2018-12-15T12:41:21.358Z,26.33
2018-12-15T12:43:54.352Z,28.30
2018-12-15T12:46:25.488Z,27.47
2018-12-15T12:48:58.388Z,26.60
2018-12-15T12:51:30.594Z,27.53
2018-12-15T12:54:03.302Z,25.67
2018-12-15T12:56:35.744Z,27.13
2018-12-15T13:02:01.628Z,26.33
2018-12-15T13:04:33.990Z,28.43
2018-12-15T13:07:06.354Z,25.23
2018-12-15T13:09:39.160Z,25.33
2018-12-15T13:12:12.281Z,27.80
2018-12-15T13:14:42.666Z,26.40
2018-12-15T13:17:15.471Z,28.13
2018-12-15T13:19:47.848Z,28.20
2018-12-15T13:22:20.803Z,24.63
2018-12-15T13:24:50.820Z,27.27
2018-12-15T13:27:22.156Z,27.77
2018-12-15T13:29:55.017Z,27.77
2018-12-15T13:32:27.036Z,28.53
2018-12-15T13:34:59.381Z,29.13
2018-12-15T13:37:33.910Z,28.07
2018-12-15T13:40:07.101Z,28.20
2018-12-15T13:42:42.803Z,28.03
2018-12-15T13:45:17.050Z,26.47
2018-12-15T13:47:51.867Z,27.00
2018-12-15T13:50:26.768Z,27.57
2018-12-15T13:53:00.995Z,27.17
2018-12-15T13:55:35.169Z,28.17
2018-12-15T13:58:10.156Z,27.97
2018-12-15T14:00:43.763Z,28.60
2018-12-15T14:03:16.293Z,26.50
2018-12-15T14:05:47.547Z,21.87
2018-12-15T14:08:18.026Z,24.47
2018-12-15T14:10:50.829Z,25.37
2018-12-15T14:13:24.478Z,25.43
2018-12-15T14:18:54.632Z,25.43
2018-12-15T14:21:26.475Z,27.27
2018-12-15T14:23:58.607Z,26.60
2018-12-15T14:26:32.880Z,24.40
2018-12-15T14:29:07.182Z,27.37
2018-12-15T14:31:39.426Z,26.97
2018-12-15T14:34:13.654Z,26.23
2018-12-15T14:36:47.954Z,27.27
2018-12-15T14:39:22.779Z,25.23
2018-12-15T14:41:55.506Z,22.90
2018-12-15T14:44:29.530Z,24.77
2018-12-15T14:47:03.716Z,25.03
2018-12-15T14:49:38.040Z,23.87
2018-12-15T14:52:11.967Z,23.03
2018-12-15T14:54:44.574Z,24.70
2018-12-15T14:57:22.162Z,26.17
2018-12-15T14:59:55.040Z,25.97
2018-12-15T15:02:29.385Z,26.80
2018-12-15T15:05:02.977Z,27.13
2018-12-15T15:07:35.317Z,26.10
2018-12-15T15:10:08.125Z,28.20
2018-12-15T15:12:40.531Z,26.03
2018-12-15T15:15:22.003Z,27.33
2018-12-15T15:18:00.545Z,29.50
2018-12-15T15:20:33.097Z,28.20
2018-12-15T15:23:08.179Z,30.07
2018-12-15T15:25:40.237Z,29.40
2018-12-15T15:28:12.516Z,30.23
2018-12-15T15:30:46.104Z,30.37
2018-12-15T15:33:27.817Z,30.13
2018-12-15T15:36:00.365Z,28.23
2018-12-15T15:38:32.550Z,28.87
2018-12-15T15:41:05.174Z,29.17
2018-12-15T15:43:39.884Z,29.03
2018-12-15T15:46:12.455Z,30.17
2018-12-15T15:48:44.829Z,27.53
2018-12-15T15:51:17.197Z,28.33
2018-12-15T15:53:49.453Z,29.67
2018-12-15T15:56:23.902Z,31.50
2018-12-15T15:58:56.405Z,31.60
2018-12-15T16:01:28.965Z,27.53
2018-12-15T16:04:01.032Z,30.77
2018-12-15T16:06:33.707Z,30.17
2018-12-15T16:09:09.184Z,31.60
2018-12-15T16:11:43.114Z,31.70
2018-12-15T16:14:15.366Z,30.47
2018-12-15T16:16:47.774Z,29.90
2018-12-15T16:19:22.236Z,28.77
2018-12-15T16:21:54.769Z,31.53
2018-12-15T16:24:27.129Z,31.47
2018-12-15T16:26:59.200Z,30.90
2018-12-15T16:29:32.024Z,31.13
2018-12-15T16:32:03.904Z,33.10
2018-12-15T16:34:36.369Z,33.30
2018-12-15T16:37:08.443Z,32.33
2018-12-15T16:39:40.769Z,32.03
2018-12-15T16:42:13.659Z,32.80
2018-12-15T16:44:45.710Z,36.77
2018-12-15T16:47:17.864Z,33.37
2018-12-15T16:52:42.289Z,32.77
2018-12-15T16:55:14.335Z,31.70
2018-12-15T16:57:46.482Z,28.73
2018-12-15T17:00:16.682Z,31.93
2018-12-15T17:02:46.986Z,33.30
2018-12-15T17:05:19.251Z,32.43
2018-12-15T17:07:51.747Z,34.60
2018-12-15T17:10:22.009Z,34.47
2018-12-15T17:12:55.360Z,30.03
2018-12-15T17:15:27.515Z,32.70
2018-12-15T17:17:59.651Z,33.63
2018-12-15T17:20:31.786Z,33.60
2018-12-15T17:23:04.150Z,32.90
2018-12-15T17:25:38.844Z,29.60
2018-12-15T17:28:10.669Z,27.87
2018-12-15T17:30:41.161Z,33.87
2018-12-15T17:33:13.305Z,33.60
2018-12-15T17:35:45.594Z,33.63
2018-12-15T17:38:16.004Z,34.00
2018-12-15T17:40:48.345Z,33.23
2018-12-15T17:43:21.088Z,34.20
2018-12-15T17:45:51.237Z,32.73
2018-12-15T17:48:25.630Z,31.97
2018-12-15T17:51:03.078Z,32.27
2018-12-15T17:53:31.844Z,32.33
2018-12-15T17:56:04.900Z,29.13
2018-12-15T17:58:37.463Z,32.93
2018-12-15T18:01:09.821Z,33.23
2018-12-15T18:03:42.078Z,31.90
2018-12-15T18:06:16.419Z,32.17
2018-12-15T18:08:48.324Z,28.60
2018-12-15T18:11:20.603Z,32.40
2018-12-15T18:13:53.079Z,33.87
2018-12-15T18:16:24.673Z,31.37
2018-12-15T18:18:57.232Z,33.53
2018-12-15T18:21:29.015Z,33.60
2018-12-15T18:31:33.341Z,35.00
2018-12-15T18:34:05.354Z,37.27
2018-12-15T18:36:37.611Z,39.57
2018-12-15T18:39:09.732Z,31.93
2018-12-15T18:41:42.064Z,34.77
2018-12-15T18:44:12.454Z,34.87
2018-12-15T18:46:44.385Z,31.97
2018-12-15T18:49:16.801Z,34.03
2018-12-15T18:51:49.192Z,34.10
2018-12-15T18:54:21.417Z,32.60
2018-12-15T18:56:53.457Z,27.20
2018-12-15T18:59:25.854Z,28.87
2018-12-15T19:01:57.879Z,34.40
2018-12-15T19:04:30.512Z,34.27
2018-12-15T19:07:02.407Z,36.20
2018-12-15T19:09:34.722Z,35.70
2018-12-15T19:12:06.870Z,33.37
2018-12-15T19:14:40.337Z,29.80
2018-12-15T19:17:13.025Z,32.87
2018-12-15T19:19:43.568Z,33.93
2018-12-15T19:22:15.777Z,33.80
2018-12-15T19:24:47.899Z,30.23
2018-12-15T19:27:20.396Z,35.50
2018-12-15T19:29:52.256Z,34.27
2018-12-15T19:34:56.543Z,36.37
2018-12-15T19:37:28.512Z,32.60
2018-12-15T19:40:03.735Z,35.30
2018-12-15T19:42:34.045Z,32.33
2018-12-15T19:45:09.431Z,35.07
2018-12-15T19:47:41.748Z,33.03
2018-12-15T19:50:14.128Z,33.57
2018-12-15T19:52:44.610Z,32.80
2018-12-15T19:55:16.911Z,32.93
2018-12-15T19:57:48.935Z,36.23
2018-12-15T20:00:21.253Z,35.43
2018-12-15T20:02:53.728Z,32.23
2018-12-15T20:05:25.927Z,33.63
2018-12-15T20:07:58.355Z,34.67
2018-12-15T20:10:30.366Z,34.40
2018-12-15T20:13:02.393Z,34.60
2018-12-15T20:15:34.483Z,31.53
2018-12-15T20:18:06.765Z,33.90
2018-12-15T20:20:38.541Z,34.53
2018-12-15T20:23:10.756Z,34.60
2018-12-15T20:25:42.948Z,34.77
2018-12-15T20:28:15.986Z,34.87
2018-12-15T20:30:48.500Z,36.63
2018-12-15T20:33:20.696Z,29.40
2018-12-15T20:38:22.997Z,36.00
2018-12-15T20:40:56.876Z,31.20
2018-12-15T20:43:29.218Z,35.10
2018-12-15T20:45:59.439Z,35.23
2018-12-15T20:48:32.431Z,35.93
2018-12-15T20:51:04.344Z,33.43
2018-12-15T20:53:36.508Z,33.73
2018-12-15T20:56:08.685Z,37.17
2018-12-15T20:58:38.899Z,29.17
2018-12-15T21:01:11.188Z,35.17
2018-12-15T21:03:43.991Z,33.17
2018-12-15T21:06:15.884Z,30.60
2018-12-15T21:08:48.451Z,34.53
2018-12-15T21:11:24.153Z,34.73
2018-12-15T21:13:56.716Z,33.90
2018-12-15T21:16:28.461Z,35.73
2018-12-15T21:19:01.003Z,36.57
2018-12-15T21:21:30.992Z,35.43
2018-12-15T21:24:03.365Z,34.73
2018-12-15T21:26:38.077Z,38.57
2018-12-15T21:29:09.955Z,38.23
2018-12-15T21:31:42.470Z,38.87
2018-12-15T21:34:15.094Z,37.30
2018-12-15T21:36:49.877Z,36.77
2018-12-15T21:41:54.188Z,34.23
2018-12-15T21:44:26.554Z,32.50
2018-12-15T21:46:58.779Z,34.50
2018-12-15T21:49:31.094Z,34.33
2018-12-15T21:52:03.222Z,35.30
2018-12-15T21:54:35.761Z,35.33
2018-12-15T22:00:01.470Z,34.33
2018-12-15T22:02:34.304Z,34.70
2018-12-15T22:05:06.567Z,35.70
2018-12-15T22:07:40.586Z,28.63
2018-12-15T22:10:12.201Z,28.53
2018-12-15T22:12:45.304Z,32.17
2018-12-15T22:15:19.704Z,28.37
2018-12-15T22:17:51.875Z,29.57
2018-12-15T22:20:25.978Z,27.33
2018-12-15T22:22:57.929Z,34.30
2018-12-15T22:25:30.335Z,28.93
2018-12-15T22:28:02.601Z,31.50
2018-12-15T22:30:35.116Z,32.60
2018-12-15T22:33:07.378Z,23.27
2018-12-15T22:35:37.517Z,26.73
2018-12-15T22:38:10.152Z,32.80
2018-12-15T22:40:42.061Z,30.80
2018-12-15T22:43:14.367Z,30.40
2018-12-15T22:45:47.020Z,33.27
2018-12-15T22:48:19.642Z,30.90
2018-12-15T22:50:51.798Z,31.23
2018-12-15T22:53:24.012Z,29.87
2018-12-15T22:55:57.188Z,26.73
2018-12-15T22:58:29.742Z,30.67
2018-12-15T23:01:06.876Z,30.87
2018-12-15T23:03:39.335Z,31.40
2018-12-15T23:06:11.705Z,24.17
2018-12-15T23:08:44.164Z,32.90
2018-12-15T23:11:16.852Z,29.93
2018-12-15T23:16:43.470Z,33.47
2018-12-15T23:19:15.533Z,29.80
2018-12-15T23:21:47.626Z,26.43
2018-12-15T23:24:17.998Z,32.20
2018-12-15T23:26:50.935Z,32.43
2018-12-15T23:29:26.515Z,32.77
2018-12-15T23:31:58.345Z,32.07
2018-12-15T23:34:30.909Z,33.97
2018-12-15T23:37:03.136Z,33.30
2018-12-15T23:39:35.531Z,31.63
2018-12-15T23:42:10.176Z,33.43
2018-12-15T23:44:42.446Z,34.73
2018-12-15T23:47:14.008Z,33.67
2018-12-15T23:49:46.163Z,33.83
2018-12-15T23:52:23.333Z,34.37
2018-12-15T23:54:53.305Z,32.33
2018-12-15T23:57:26.757Z,33.30
2018-12-15T23:59:58.503Z,33.07
